sensor_id;sensor_type;location;lat;lon;timestamp;P1;durP1;ratioP1;P2;durP2;ratioP2
19998;SDS011;10160;50.926;4.374;2022-09-09T00:00:14;8.68;;;1.63;;
19998;SDS011;10160;50.926;4.374;2022-09-09T00:02:44;6.07;;;1.67;;
19998;SDS011;10160;50.926;4.374;2022-09-09T00:07:48;6.80;;;1.67;;
19998;SDS011;10160;50.926;4.374;2022-09-09T00:10:37;5.18;;;1.35;;
19998;SDS011;10160;50.926;4.374;2022-09-09T00:15:57;6.88;;;2.13;;
19998;SDS011;10160;50.926;4.374;2022-09-09T00:18:29;5.57;;;1.20;;
19998;SDS011;10160;50.926;4.374;2022-09-09T00:21:25;5.65;;;1.55;;
19998;SDS011;10160;50.926;4.374;2022-09-09T00:24:41;4.75;;;1.10;;
19998;SDS011;10160;50.926;4.374;2022-09-09T00:29:54;7.33;;;1.10;;
19998;SDS011;10160;50.926;4.374;2022-09-09T00:35:54;10.50;;;1.50;;
19998;SDS011;10160;50.926;4.374;2022-09-09T00:38:37;4.07;;;1.23;;
19998;SDS011;10160;50.926;4.374;2022-09-09T00:50:25;7.90;;;1.40;;
19998;SDS011;10160;50.926;4.374;2022-09-09T00:53:24;6.10;;;1.80;;
19998;SDS011;10160;50.926;4.374;2022-09-09T00:56:18;7.17;;;1.50;;
19998;SDS011;10160;50.926;4.374;2022-09-09T00:58:52;5.87;;;1.47;;
19998;SDS011;10160;50.926;4.374;2022-09-09T01:01:41;6.20;;;1.60;;
19998;SDS011;10160;50.926;4.374;2022-09-09T01:04:09;4.33;;;1.33;;
19998;SDS011;10160;50.926;4.374;2022-09-09T01:06:41;5.47;;;1.50;;
19998;SDS011;10160;50.926;4.374;2022-09-09T01:09:24;5.33;;;1.70;;
19998;SDS011;10160;50.926;4.374;2022-09-09T01:12:09;5.47;;;1.63;;
19998;SDS011;10160;50.926;4.374;2022-09-09T01:14:56;9.13;;;1.53;;
19998;SDS011;10160;50.926;4.374;2022-09-09T01:17:44;11.23;;;1.77;;
19998;SDS011;10160;50.926;4.374;2022-09-09T01:20:43;10.33;;;1.77;;
19998;SDS011;10160;50.926;4.374;2022-09-09T01:28:51;4.77;;;1.80;;
19998;SDS011;10160;50.926;4.374;2022-09-09T01:34:22;8.63;;;1.40;;
19998;SDS011;10160;50.926;4.374;2022-09-09T01:36:58;6.40;;;1.53;;
19998;SDS011;10160;50.926;4.374;2022-09-09T01:39:44;8.80;;;1.57;;
19998;SDS011;10160;50.926;4.374;2022-09-09T01:42:12;9.60;;;1.70;;
19998;SDS011;10160;50.926;4.374;2022-09-09T01:44:40;7.40;;;1.50;;
19998;SDS011;10160;50.926;4.374;2022-09-09T01:47:07;8.17;;;1.63;;
19998;SDS011;10160;50.926;4.374;2022-09-09T01:49:37;5.22;;;1.38;;
19998;SDS011;10160;50.926;4.374;2022-09-09T01:52:07;5.93;;;1.52;;
19998;SDS011;10160;50.926;4.374;2022-09-09T01:54:33;9.80;;;1.70;;
19998;SDS011;10160;50.926;4.374;2022-09-09T01:57:38;6.53;;;1.50;;
19998;SDS011;10160;50.926;4.374;2022-09-09T02:00:05;9.73;;;1.87;;
19998;SDS011;10160;50.926;4.374;2022-09-09T02:07:56;8.07;;;2.37;;
19998;SDS011;10160;50.926;4.374;2022-09-09T02:13:23;9.70;;;2.07;;
19998;SDS011;10160;50.926;4.374;2022-09-09T02:16:14;11.47;;;2.00;;
19998;SDS011;10160;50.926;4.374;2022-09-09T02:21:28;9.17;;;1.80;;
19998;SDS011;10160;50.926;4.374;2022-09-09T02:23:58;9.20;;;1.97;;
19998;SDS011;10160;50.926;4.374;2022-09-09T02:26:29;6.03;;;1.80;;
19998;SDS011;10160;50.926;4.374;2022-09-09T02:32:22;10.25;;;2.30;;
19998;SDS011;10160;50.926;4.374;2022-09-09T02:37:37;12.27;;;2.13;;
19998;SDS011;10160;50.926;4.374;2022-09-09T02:40:05;11.40;;;2.00;;
19998;SDS011;10160;50.926;4.374;2022-09-09T02:42:38;11.80;;;2.33;;
19998;SDS011;10160;50.926;4.374;2022-09-09T02:45:05;9.77;;;2.40;;
19998;SDS011;10160;50.926;4.374;2022-09-09T02:47:36;10.90;;;2.10;;
19998;SDS011;10160;50.926;4.374;2022-09-09T02:50:08;14.20;;;2.57;;
19998;SDS011;10160;50.926;4.374;2022-09-09T02:55:55;11.75;;;2.40;;
19998;SDS011;10160;50.926;4.374;2022-09-09T02:58:25;13.07;;;2.97;;
19998;SDS011;10160;50.926;4.374;2022-09-09T03:00:51;11.80;;;2.13;;
19998;SDS011;10160;50.926;4.374;2022-09-09T03:03:25;12.25;;;1.98;;
19998;SDS011;10160;50.926;4.374;2022-09-09T03:05:52;11.85;;;2.03;;
19998;SDS011;10160;50.926;4.374;2022-09-09T03:08:17;10.33;;;2.17;;
19998;SDS011;10160;50.926;4.374;2022-09-09T03:10:43;14.87;;;2.87;;
19998;SDS011;10160;50.926;4.374;2022-09-09T03:13:09;13.20;;;2.20;;
19998;SDS011;10160;50.926;4.374;2022-09-09T03:15:37;12.87;;;2.90;;
19998;SDS011;10160;50.926;4.374;2022-09-09T03:18:03;10.20;;;2.20;;
19998;SDS011;10160;50.926;4.374;2022-09-09T03:20:29;10.93;;;2.00;;
19998;SDS011;10160;50.926;4.374;2022-09-09T03:22:56;11.10;;;2.53;;
19998;SDS011;10160;50.926;4.374;2022-09-09T03:25:22;10.37;;;2.53;;
19998;SDS011;10160;50.926;4.374;2022-09-09T03:27:49;6.00;;;1.80;;
19998;SDS011;10160;50.926;4.374;2022-09-09T03:30:15;16.87;;;2.37;;
19998;SDS011;10160;50.926;4.374;2022-09-09T03:32:41;9.90;;;2.90;;
19998;SDS011;10160;50.926;4.374;2022-09-09T03:35:07;15.30;;;2.60;;
19998;SDS011;10160;50.926;4.374;2022-09-09T03:37:34;11.83;;;1.90;;
19998;SDS011;10160;50.926;4.374;2022-09-09T03:40:00;11.60;;;2.80;;
19998;SDS011;10160;50.926;4.374;2022-09-09T03:42:26;13.93;;;1.97;;
19998;SDS011;10160;50.926;4.374;2022-09-09T03:44:58;10.70;;;2.30;;
19998;SDS011;10160;50.926;4.374;2022-09-09T03:47:24;11.83;;;2.03;;
19998;SDS011;10160;50.926;4.374;2022-09-09T03:50:09;13.17;;;2.20;;
19998;SDS011;10160;50.926;4.374;2022-09-09T03:52:36;12.20;;;2.23;;
19998;SDS011;10160;50.926;4.374;2022-09-09T03:55:03;16.70;;;2.30;;
19998;SDS011;10160;50.926;4.374;2022-09-09T03:57:30;11.80;;;2.40;;
19998;SDS011;10160;50.926;4.374;2022-09-09T03:59:57;11.40;;;2.10;;
19998;SDS011;10160;50.926;4.374;2022-09-09T04:02:26;12.60;;;2.40;;
19998;SDS011;10160;50.926;4.374;2022-09-09T04:04:51;8.10;;;2.07;;
19998;SDS011;10160;50.926;4.374;2022-09-09T04:07:24;12.97;;;2.50;;
19998;SDS011;10160;50.926;4.374;2022-09-09T04:09:53;10.23;;;2.50;;
19998;SDS011;10160;50.926;4.374;2022-09-09T04:12:19;15.50;;;2.83;;
19998;SDS011;10160;50.926;4.374;2022-09-09T04:14:49;7.77;;;2.70;;
19998;SDS011;10160;50.926;4.374;2022-09-09T04:17:16;10.63;;;2.17;;
19998;SDS011;10160;50.926;4.374;2022-09-09T04:19:50;12.83;;;2.50;;
19998;SDS011;10160;50.926;4.374;2022-09-09T04:22:18;12.53;;;2.23;;
19998;SDS011;10160;50.926;4.374;2022-09-09T04:24:48;13.43;;;2.20;;
19998;SDS011;10160;50.926;4.374;2022-09-09T04:27:14;8.53;;;1.77;;
19998;SDS011;10160;50.926;4.374;2022-09-09T04:29:41;12.20;;;3.08;;
19998;SDS011;10160;50.926;4.374;2022-09-09T04:32:14;16.70;;;2.77;;
19998;SDS011;10160;50.926;4.374;2022-09-09T04:34:41;12.53;;;2.00;;
19998;SDS011;10160;50.926;4.374;2022-09-09T04:37:07;10.60;;;2.07;;
19998;SDS011;10160;50.926;4.374;2022-09-09T04:39:34;15.37;;;2.47;;
19998;SDS011;10160;50.926;4.374;2022-09-09T04:42:06;12.50;;;2.43;;
19998;SDS011;10160;50.926;4.374;2022-09-09T04:44:50;11.43;;;2.17;;
19998;SDS011;10160;50.926;4.374;2022-09-09T04:47:16;12.63;;;2.90;;
19998;SDS011;10160;50.926;4.374;2022-09-09T04:49:43;18.67;;;3.73;;
19998;SDS011;10160;50.926;4.374;2022-09-09T04:52:09;12.00;;;2.63;;
19998;SDS011;10160;50.926;4.374;2022-09-09T04:54:35;7.57;;;2.20;;
19998;SDS011;10160;50.926;4.374;2022-09-09T04:57:03;12.70;;;3.07;;
19998;SDS011;10160;50.926;4.374;2022-09-09T04:59:34;13.63;;;2.97;;
19998;SDS011;10160;50.926;4.374;2022-09-09T05:02:00;11.93;;;2.77;;
19998;SDS011;10160;50.926;4.374;2022-09-09T05:04:28;10.80;;;2.93;;
19998;SDS011;10160;50.926;4.374;2022-09-09T05:06:53;14.20;;;3.00;;
19998;SDS011;10160;50.926;4.374;2022-09-09T05:09:19;11.67;;;2.73;;
19998;SDS011;10160;50.926;4.374;2022-09-09T05:11:46;13.00;;;2.77;;
19998;SDS011;10160;50.926;4.374;2022-09-09T05:14:14;13.47;;;2.60;;
19998;SDS011;10160;50.926;4.374;2022-09-09T05:16:40;13.77;;;3.07;;
19998;SDS011;10160;50.926;4.374;2022-09-09T05:19:29;11.93;;;3.03;;
19998;SDS011;10160;50.926;4.374;2022-09-09T05:21:57;14.63;;;3.33;;
19998;SDS011;10160;50.926;4.374;2022-09-09T05:24:31;8.80;;;2.50;;
19998;SDS011;10160;50.926;4.374;2022-09-09T05:27:01;9.20;;;2.93;;
19998;SDS011;10160;50.926;4.374;2022-09-09T05:29:38;9.87;;;2.50;;
19998;SDS011;10160;50.926;4.374;2022-09-09T05:32:15;11.87;;;3.10;;
19998;SDS011;10160;50.926;4.374;2022-09-09T05:34:44;15.73;;;3.73;;
19998;SDS011;10160;50.926;4.374;2022-09-09T05:37:11;14.90;;;2.90;;
19998;SDS011;10160;50.926;4.374;2022-09-09T05:40:03;14.17;;;4.10;;
19998;SDS011;10160;50.926;4.374;2022-09-09T05:42:30;15.20;;;3.47;;
19998;SDS011;10160;50.926;4.374;2022-09-09T05:44:57;8.00;;;2.10;;
19998;SDS011;10160;50.926;4.374;2022-09-09T05:47:23;13.93;;;2.60;;
19998;SDS011;10160;50.926;4.374;2022-09-09T05:49:49;11.30;;;3.00;;
19998;SDS011;10160;50.926;4.374;2022-09-09T05:52:16;19.00;;;3.20;;
19998;SDS011;10160;50.926;4.374;2022-09-09T05:54:43;17.27;;;3.07;;
19998;SDS011;10160;50.926;4.374;2022-09-09T05:57:12;15.37;;;3.63;;
19998;SDS011;10160;50.926;4.374;2022-09-09T05:59:44;7.43;;;2.20;;
19998;SDS011;10160;50.926;4.374;2022-09-09T06:02:18;13.50;;;2.57;;
19998;SDS011;10160;50.926;4.374;2022-09-09T06:04:44;8.40;;;2.63;;
19998;SDS011;10160;50.926;4.374;2022-09-09T06:07:11;11.20;;;3.33;;
19998;SDS011;10160;50.926;4.374;2022-09-09T06:09:39;10.20;;;2.40;;
19998;SDS011;10160;50.926;4.374;2022-09-09T06:14:56;10.97;;;2.70;;
19998;SDS011;10160;50.926;4.374;2022-09-09T06:17:21;9.50;;;2.60;;
19998;SDS011;10160;50.926;4.374;2022-09-09T06:19:54;17.83;;;2.83;;
19998;SDS011;10160;50.926;4.374;2022-09-09T06:22:41;12.97;;;2.90;;
19998;SDS011;10160;50.926;4.374;2022-09-09T06:25:08;9.97;;;2.40;;
19998;SDS011;10160;50.926;4.374;2022-09-09T06:27:34;14.70;;;3.20;;
19998;SDS011;10160;50.926;4.374;2022-09-09T06:30:00;10.27;;;2.40;;
19998;SDS011;10160;50.926;4.374;2022-09-09T06:32:27;13.63;;;2.95;;
19998;SDS011;10160;50.926;4.374;2022-09-09T06:35:01;14.10;;;2.50;;
19998;SDS011;10160;50.926;4.374;2022-09-09T06:37:28;10.15;;;2.20;;
19998;SDS011;10160;50.926;4.374;2022-09-09T06:39:55;13.07;;;2.37;;
19998;SDS011;10160;50.926;4.374;2022-09-09T06:42:21;14.05;;;2.60;;
19998;SDS011;10160;50.926;4.374;2022-09-09T06:44:48;13.63;;;2.40;;
19998;SDS011;10160;50.926;4.374;2022-09-09T06:47:14;10.70;;;3.35;;
19998;SDS011;10160;50.926;4.374;2022-09-09T06:49:40;13.10;;;2.55;;
19998;SDS011;10160;50.926;4.374;2022-09-09T06:52:05;14.52;;;2.50;;
19998;SDS011;10160;50.926;4.374;2022-09-09T06:54:33;14.73;;;2.72;;
19998;SDS011;10160;50.926;4.374;2022-09-09T06:57:01;8.02;;;2.47;;
19998;SDS011;10160;50.926;4.374;2022-09-09T06:59:27;7.50;;;2.00;;
19998;SDS011;10160;50.926;4.374;2022-09-09T07:01:55;17.10;;;2.60;;
19998;SDS011;10160;50.926;4.374;2022-09-09T07:04:21;12.95;;;2.58;;
19998;SDS011;10160;50.926;4.374;2022-09-09T07:06:47;12.60;;;2.25;;
19998;SDS011;10160;50.926;4.374;2022-09-09T07:09:14;11.85;;;2.00;;
19998;SDS011;10160;50.926;4.374;2022-09-09T07:11:44;11.95;;;2.33;;
19998;SDS011;10160;50.926;4.374;2022-09-09T07:14:12;12.10;;;2.25;;
19998;SDS011;10160;50.926;4.374;2022-09-09T07:16:42;8.45;;;2.22;;
19998;SDS011;10160;50.926;4.374;2022-09-09T07:19:09;12.90;;;2.37;;
19998;SDS011;10160;50.926;4.374;2022-09-09T07:21:39;12.32;;;2.00;;
19998;SDS011;10160;50.926;4.374;2022-09-09T07:24:05;9.25;;;1.98;;
19998;SDS011;10160;50.926;4.374;2022-09-09T07:26:35;11.15;;;2.17;;
19998;SDS011;10160;50.926;4.374;2022-09-09T07:29:02;12.52;;;2.45;;
19998;SDS011;10160;50.926;4.374;2022-09-09T07:31:30;11.13;;;2.25;;
19998;SDS011;10160;50.926;4.374;2022-09-09T07:33:57;11.70;;;2.05;;
19998;SDS011;10160;50.926;4.374;2022-09-09T07:36:31;12.07;;;2.97;;
19998;SDS011;10160;50.926;4.374;2022-09-09T07:39:03;11.18;;;2.00;;
19998;SDS011;10160;50.926;4.374;2022-09-09T07:41:33;12.48;;;2.40;;
19998;SDS011;10160;50.926;4.374;2022-09-09T07:44:19;12.52;;;2.25;;
19998;SDS011;10160;50.926;4.374;2022-09-09T07:46:47;7.60;;;1.80;;
19998;SDS011;10160;50.926;4.374;2022-09-09T07:49:13;5.82;;;1.58;;
19998;SDS011;10160;50.926;4.374;2022-09-09T07:51:40;10.52;;;2.10;;
19998;SDS011;10160;50.926;4.374;2022-09-09T07:54:08;10.00;;;2.92;;
19998;SDS011;10160;50.926;4.374;2022-09-09T07:56:36;9.32;;;2.00;;
19998;SDS011;10160;50.926;4.374;2022-09-09T07:59:02;9.40;;;2.55;;
19998;SDS011;10160;50.926;4.374;2022-09-09T08:01:35;16.35;;;2.78;;
19998;SDS011;10160;50.926;4.374;2022-09-09T08:04:04;14.75;;;2.38;;
19998;SDS011;10160;50.926;4.374;2022-09-09T08:06:36;13.07;;;2.63;;
19998;SDS011;10160;50.926;4.374;2022-09-09T08:09:04;8.63;;;2.10;;
19998;SDS011;10160;50.926;4.374;2022-09-09T08:11:30;9.00;;;2.00;;
19998;SDS011;10160;50.926;4.374;2022-09-09T08:13:57;8.90;;;1.90;;
19998;SDS011;10160;50.926;4.374;2022-09-09T08:16:24;10.18;;;2.22;;
19998;SDS011;10160;50.926;4.374;2022-09-09T08:18:52;6.53;;;1.65;;
19998;SDS011;10160;50.926;4.374;2022-09-09T08:21:20;11.20;;;1.90;;
19998;SDS011;10160;50.926;4.374;2022-09-09T08:23:49;11.77;;;1.80;;
19998;SDS011;10160;50.926;4.374;2022-09-09T08:26:21;8.30;;;2.13;;
19998;SDS011;10160;50.926;4.374;2022-09-09T08:28:48;13.23;;;2.20;;
19998;SDS011;10160;50.926;4.374;2022-09-09T08:33:46;11.25;;;2.20;;
19998;SDS011;10160;50.926;4.374;2022-09-09T08:36:14;9.27;;;2.10;;
19998;SDS011;10160;50.926;4.374;2022-09-09T08:38:48;9.88;;;2.53;;
19998;SDS011;10160;50.926;4.374;2022-09-09T08:46:35;11.07;;;2.42;;
19998;SDS011;10160;50.926;4.374;2022-09-09T08:52:13;12.88;;;2.85;;
19998;SDS011;10160;50.926;4.374;2022-09-09T08:54:53;13.00;;;3.08;;
19998;SDS011;10160;50.926;4.374;2022-09-09T08:57:25;9.23;;;2.10;;
19998;SDS011;10160;50.926;4.374;2022-09-09T08:59:53;8.38;;;2.50;;
19998;SDS011;10160;50.926;4.374;2022-09-09T09:02:38;13.27;;;2.17;;
19998;SDS011;10160;50.926;4.374;2022-09-09T09:05:24;11.77;;;2.75;;
19998;SDS011;10160;50.926;4.374;2022-09-09T09:08:17;14.00;;;2.65;;
19998;SDS011;10160;50.926;4.374;2022-09-09T09:10:58;11.52;;;2.38;;
19998;SDS011;10160;50.926;4.374;2022-09-09T09:19:01;13.55;;;2.40;;
19998;SDS011;10160;50.926;4.374;2022-09-09T09:21:35;11.80;;;2.33;;
19998;SDS011;10160;50.926;4.374;2022-09-09T09:24:01;12.40;;;3.33;;
19998;SDS011;10160;50.926;4.374;2022-09-09T09:26:33;14.60;;;2.90;;
19998;SDS011;10160;50.926;4.374;2022-09-09T09:29:01;9.95;;;2.42;;
19998;SDS011;10160;50.926;4.374;2022-09-09T09:31:42;11.00;;;1.92;;
19998;SDS011;10160;50.926;4.374;2022-09-09T09:34:14;10.40;;;2.22;;
19998;SDS011;10160;50.926;4.374;2022-09-09T09:39:30;7.72;;;2.20;;
19998;SDS011;10160;50.926;4.374;2022-09-09T09:42:10;8.20;;;2.40;;
19998;SDS011;10160;50.926;4.374;2022-09-09T09:44:39;10.88;;;2.50;;
19998;SDS011;10160;50.926;4.374;2022-09-09T09:47:19;10.48;;;2.45;;
19998;SDS011;10160;50.926;4.374;2022-09-09T09:49:57;8.20;;;2.15;;
19998;SDS011;10160;50.926;4.374;2022-09-09T09:52:25;11.93;;;2.63;;
19998;SDS011;10160;50.926;4.374;2022-09-09T09:54:56;10.70;;;2.53;;
19998;SDS011;10160;50.926;4.374;2022-09-09T09:57:28;8.60;;;2.20;;
19998;SDS011;10160;50.926;4.374;2022-09-09T10:00:15;16.52;;;3.60;;
19998;SDS011;10160;50.926;4.374;2022-09-09T10:02:43;13.13;;;2.72;;
19998;SDS011;10160;50.926;4.374;2022-09-09T10:05:14;6.15;;;2.28;;
19998;SDS011;10160;50.926;4.374;2022-09-09T10:07:45;8.35;;;2.35;;
19998;SDS011;10160;50.926;4.374;2022-09-09T10:10:23;11.10;;;2.30;;
19998;SDS011;10160;50.926;4.374;2022-09-09T10:13:00;9.43;;;2.70;;
19998;SDS011;10160;50.926;4.374;2022-09-09T10:18:15;9.18;;;2.70;;
19998;SDS011;10160;50.926;4.374;2022-09-09T10:23:59;6.15;;;1.63;;
19998;SDS011;10160;50.926;4.374;2022-09-09T10:26:53;5.80;;;1.30;;
19998;SDS011;10160;50.926;4.374;2022-09-09T10:35:27;7.68;;;1.92;;
19998;SDS011;10160;50.926;4.374;2022-09-09T10:38:10;9.90;;;2.05;;
19998;SDS011;10160;50.926;4.374;2022-09-09T10:40:41;8.65;;;1.90;;
19998;SDS011;10160;50.926;4.374;2022-09-09T10:43:20;5.75;;;1.40;;
19998;SDS011;10160;50.926;4.374;2022-09-09T10:46:03;7.60;;;1.58;;
19998;SDS011;10160;50.926;4.374;2022-09-09T10:55:13;7.53;;;1.50;;
19998;SDS011;10160;50.926;4.374;2022-09-09T11:00:30;7.70;;;1.70;;
19998;SDS011;10160;50.926;4.374;2022-09-09T11:03:12;9.73;;;2.25;;
19998;SDS011;10160;50.926;4.374;2022-09-09T11:05:45;12.40;;;1.80;;
19998;SDS011;10160;50.926;4.374;2022-09-09T11:13:29;8.82;;;1.60;;
19998;SDS011;10160;50.926;4.374;2022-09-09T11:16:10;7.63;;;1.83;;
19998;SDS011;10160;50.926;4.374;2022-09-09T11:21:59;9.20;;;1.58;;
19998;SDS011;10160;50.926;4.374;2022-09-09T11:24:45;6.93;;;1.60;;
19998;SDS011;10160;50.926;4.374;2022-09-09T11:27:18;6.68;;;1.30;;
19998;SDS011;10160;50.926;4.374;2022-09-09T11:30:04;9.77;;;1.48;;
19998;SDS011;10160;50.926;4.374;2022-09-09T11:40:45;8.05;;;1.45;;
19998;SDS011;10160;50.926;4.374;2022-09-09T11:43:33;5.53;;;1.52;;
19998;SDS011;10160;50.926;4.374;2022-09-09T11:46:03;12.40;;;1.92;;
19998;SDS011;10160;50.926;4.374;2022-09-09T11:48:31;9.27;;;1.60;;
19998;SDS011;10160;50.926;4.374;2022-09-09T11:51:04;10.07;;;2.00;;
19998;SDS011;10160;50.926;4.374;2022-09-09T11:53:32;5.78;;;1.10;;
19998;SDS011;10160;50.926;4.374;2022-09-09T11:56:02;4.35;;;1.30;;
19998;SDS011;10160;50.926;4.374;2022-09-09T11:58:42;4.95;;;1.05;;
19998;SDS011;10160;50.926;4.374;2022-09-09T12:01:26;12.27;;;1.70;;
19998;SDS011;10160;50.926;4.374;2022-09-09T12:04:10;7.65;;;1.35;;
19998;SDS011;10160;50.926;4.374;2022-09-09T12:12:06;7.40;;;1.42;;
19998;SDS011;10160;50.926;4.374;2022-09-09T12:14:36;8.32;;;1.45;;
19998;SDS011;10160;50.926;4.374;2022-09-09T12:17:10;5.75;;;1.40;;
19998;SDS011;10160;50.926;4.374;2022-09-09T12:19:44;10.85;;;1.95;;
19998;SDS011;10160;50.926;4.374;2022-09-09T12:22:27;6.13;;;1.42;;
19998;SDS011;10160;50.926;4.374;2022-09-09T12:25:08;7.07;;;1.27;;
19998;SDS011;10160;50.926;4.374;2022-09-09T12:30:34;9.13;;;1.52;;
19998;SDS011;10160;50.926;4.374;2022-09-09T12:33:10;9.63;;;1.67;;
19998;SDS011;10160;50.926;4.374;2022-09-09T12:35:38;5.78;;;1.67;;
19998;SDS011;10160;50.926;4.374;2022-09-09T12:38:06;8.02;;;1.67;;
19998;SDS011;10160;50.926;4.374;2022-09-09T12:40:55;6.10;;;1.33;;
19998;SDS011;10160;50.926;4.374;2022-09-09T12:43:22;4.72;;;1.65;;
19998;SDS011;10160;50.926;4.374;2022-09-09T12:45:50;8.38;;;1.15;;
19998;SDS011;10160;50.926;4.374;2022-09-09T12:48:22;7.32;;;1.38;;
19998;SDS011;10160;50.926;4.374;2022-09-09T12:50:53;6.95;;;1.17;;
19998;SDS011;10160;50.926;4.374;2022-09-09T12:56:08;7.75;;;1.42;;
19998;SDS011;10160;50.926;4.374;2022-09-09T12:58:44;7.93;;;1.23;;
19998;SDS011;10160;50.926;4.374;2022-09-09T13:01:18;8.38;;;1.55;;
19998;SDS011;10160;50.926;4.374;2022-09-09T13:03:50;8.98;;;1.90;;
19998;SDS011;10160;50.926;4.374;2022-09-09T13:06:20;6.07;;;1.63;;
19998;SDS011;10160;50.926;4.374;2022-09-09T13:08:48;6.45;;;1.75;;
19998;SDS011;10160;50.926;4.374;2022-09-09T13:11:19;6.25;;;1.02;;
19998;SDS011;10160;50.926;4.374;2022-09-09T13:13:54;5.35;;;1.00;;
19998;SDS011;10160;50.926;4.374;2022-09-09T13:16:23;10.77;;;1.25;;
19998;SDS011;10160;50.926;4.374;2022-09-09T13:18:55;5.68;;;1.52;;
19998;SDS011;10160;50.926;4.374;2022-09-09T13:21:30;6.90;;;1.00;;
19998;SDS011;10160;50.926;4.374;2022-09-09T13:23:59;5.43;;;1.33;;
19998;SDS011;10160;50.926;4.374;2022-09-09T13:26:28;5.28;;;1.35;;
19998;SDS011;10160;50.926;4.374;2022-09-09T13:28:55;6.90;;;1.48;;
19998;SDS011;10160;50.926;4.374;2022-09-09T13:31:40;5.90;;;1.20;;
19998;SDS011;10160;50.926;4.374;2022-09-09T13:34:13;9.15;;;1.50;;
19998;SDS011;10160;50.926;4.374;2022-09-09T13:36:52;4.93;;;1.27;;
19998;SDS011;10160;50.926;4.374;2022-09-09T13:39:19;9.20;;;1.15;;
19998;SDS011;10160;50.926;4.374;2022-09-09T13:41:45;5.38;;;0.90;;
19998;SDS011;10160;50.926;4.374;2022-09-09T13:44:17;5.38;;;1.17;;
19998;SDS011;10160;50.926;4.374;2022-09-09T13:46:58;5.53;;;1.80;;
19998;SDS011;10160;50.926;4.374;2022-09-09T13:49:31;5.93;;;1.55;;
19998;SDS011;10160;50.926;4.374;2022-09-09T13:52:31;5.63;;;1.45;;
19998;SDS011;10160;50.926;4.374;2022-09-09T13:54:52;6.32;;;1.67;;
19998;SDS011;10160;50.926;4.374;2022-09-09T13:57:22;3.72;;;0.98;;
19998;SDS011;10160;50.926;4.374;2022-09-09T13:59:50;6.70;;;1.40;;
19998;SDS011;10160;50.926;4.374;2022-09-09T14:02:17;5.75;;;1.45;;
19998;SDS011;10160;50.926;4.374;2022-09-09T14:04:43;6.35;;;1.42;;
19998;SDS011;10160;50.926;4.374;2022-09-09T14:07:13;5.63;;;1.63;;
19998;SDS011;10160;50.926;4.374;2022-09-09T14:09:40;5.35;;;1.25;;
19998;SDS011;10160;50.926;4.374;2022-09-09T14:12:12;5.15;;;0.90;;
19998;SDS011;10160;50.926;4.374;2022-09-09T14:14:40;4.88;;;1.20;;
19998;SDS011;10160;50.926;4.374;2022-09-09T14:17:07;4.47;;;1.10;;
19998;SDS011;10160;50.926;4.374;2022-09-09T14:19:33;3.80;;;1.10;;
19998;SDS011;10160;50.926;4.374;2022-09-09T14:21:59;6.35;;;1.40;;
19998;SDS011;10160;50.926;4.374;2022-09-09T14:24:26;6.00;;;1.10;;
19998;SDS011;10160;50.926;4.374;2022-09-09T14:26:52;6.25;;;1.13;;
19998;SDS011;10160;50.926;4.374;2022-09-09T14:29:18;4.47;;;1.42;;
19998;SDS011;10160;50.926;4.374;2022-09-09T14:31:44;3.80;;;1.15;;
19998;SDS011;10160;50.926;4.374;2022-09-09T14:34:10;7.03;;;1.90;;
19998;SDS011;10160;50.926;4.374;2022-09-09T14:36:36;6.15;;;1.58;;
19998;SDS011;10160;50.926;4.374;2022-09-09T14:39:03;3.28;;;1.17;;
19998;SDS011;10160;50.926;4.374;2022-09-09T14:41:29;4.45;;;1.30;;
19998;SDS011;10160;50.926;4.374;2022-09-09T14:43:55;5.80;;;1.80;;
19998;SDS011;10160;50.926;4.374;2022-09-09T14:46:21;4.43;;;1.50;;
19998;SDS011;10160;50.926;4.374;2022-09-09T14:48:48;5.60;;;1.70;;
19998;SDS011;10160;50.926;4.374;2022-09-09T14:51:15;4.65;;;1.40;;
19998;SDS011;10160;50.926;4.374;2022-09-09T14:53:42;7.38;;;1.67;;
19998;SDS011;10160;50.926;4.374;2022-09-09T14:56:18;8.15;;;1.85;;
19998;SDS011;10160;50.926;4.374;2022-09-09T14:58:47;5.68;;;1.40;;
19998;SDS011;10160;50.926;4.374;2022-09-09T15:01:17;3.22;;;1.15;;
19998;SDS011;10160;50.926;4.374;2022-09-09T15:04:18;5.95;;;1.58;;
19998;SDS011;10160;50.926;4.374;2022-09-09T15:06:37;5.60;;;1.20;;
19998;SDS011;10160;50.926;4.374;2022-09-09T15:09:04;5.22;;;1.20;;
19998;SDS011;10160;50.926;4.374;2022-09-09T15:11:31;4.93;;;1.33;;
19998;SDS011;10160;50.926;4.374;2022-09-09T15:14:02;8.55;;;1.25;;
19998;SDS011;10160;50.926;4.374;2022-09-09T15:16:29;3.92;;;1.10;;
19998;SDS011;10160;50.926;4.374;2022-09-09T15:18:57;5.18;;;1.15;;
19998;SDS011;10160;50.926;4.374;2022-09-09T15:21:25;5.82;;;1.17;;
19998;SDS011;10160;50.926;4.374;2022-09-09T15:23:53;6.43;;;1.55;;
19998;SDS011;10160;50.926;4.374;2022-09-09T15:26:19;5.55;;;1.42;;
19998;SDS011;10160;50.926;4.374;2022-09-09T15:28:46;5.20;;;1.48;;
19998;SDS011;10160;50.926;4.374;2022-09-09T15:33:39;4.47;;;1.25;;
19998;SDS011;10160;50.926;4.374;2022-09-09T15:36:28;4.30;;;1.30;;
19998;SDS011;10160;50.926;4.374;2022-09-09T15:38:57;3.63;;;1.00;;
19998;SDS011;10160;50.926;4.374;2022-09-09T15:41:26;6.75;;;1.40;;
19998;SDS011;10160;50.926;4.374;2022-09-09T15:43:53;6.97;;;1.02;;
19998;SDS011;10160;50.926;4.374;2022-09-09T15:46:29;9.30;;;1.40;;
19998;SDS011;10160;50.926;4.374;2022-09-09T15:49:02;6.07;;;1.40;;
19998;SDS011;10160;50.926;4.374;2022-09-09T15:51:44;6.90;;;1.52;;
19998;SDS011;10160;50.926;4.374;2022-09-09T15:54:15;3.80;;;1.00;;
19998;SDS011;10160;50.926;4.374;2022-09-09T15:56:43;11.35;;;1.25;;
19998;SDS011;10160;50.926;4.374;2022-09-09T15:59:09;8.63;;;1.80;;
19998;SDS011;10160;50.926;4.374;2022-09-09T16:01:35;6.97;;;1.50;;
19998;SDS011;10160;50.926;4.374;2022-09-09T16:04:01;7.95;;;1.35;;
19998;SDS011;10160;50.926;4.374;2022-09-09T16:06:27;5.18;;;1.48;;
19998;SDS011;10160;50.926;4.374;2022-09-09T16:08:55;14.65;;;1.83;;
19998;SDS011;10160;50.926;4.374;2022-09-09T16:11:22;6.97;;;1.50;;
19998;SDS011;10160;50.926;4.374;2022-09-09T16:13:53;7.18;;;1.65;;
19998;SDS011;10160;50.926;4.374;2022-09-09T16:16:21;7.13;;;1.65;;
19998;SDS011;10160;50.926;4.374;2022-09-09T16:19:10;4.15;;;1.40;;
19998;SDS011;10160;50.926;4.374;2022-09-09T16:21:38;6.95;;;1.60;;
19998;SDS011;10160;50.926;4.374;2022-09-09T16:24:07;7.35;;;1.50;;
19998;SDS011;10160;50.926;4.374;2022-09-09T16:26:34;9.55;;;1.55;;
19998;SDS011;10160;50.926;4.374;2022-09-09T16:29:02;7.80;;;1.58;;
19998;SDS011;10160;50.926;4.374;2022-09-09T16:31:28;9.45;;;1.50;;
19998;SDS011;10160;50.926;4.374;2022-09-09T16:33:54;6.32;;;1.33;;
19998;SDS011;10160;50.926;4.374;2022-09-09T16:36:21;5.60;;;1.35;;
19998;SDS011;10160;50.926;4.374;2022-09-09T16:38:52;4.55;;;1.50;;
19998;SDS011;10160;50.926;4.374;2022-09-09T16:41:22;5.78;;;1.52;;
19998;SDS011;10160;50.926;4.374;2022-09-09T16:43:55;4.95;;;1.42;;
19998;SDS011;10160;50.926;4.374;2022-09-09T16:46:23;6.10;;;1.30;;
19998;SDS011;10160;50.926;4.374;2022-09-09T16:48:49;9.43;;;1.48;;
19998;SDS011;10160;50.926;4.374;2022-09-09T16:51:20;5.00;;;1.30;;
19998;SDS011;10160;50.926;4.374;2022-09-09T16:53:48;4.60;;;1.05;;
19998;SDS011;10160;50.926;4.374;2022-09-09T16:56:15;4.35;;;0.93;;
19998;SDS011;10160;50.926;4.374;2022-09-09T16:58:43;2.63;;;1.13;;
19998;SDS011;10160;50.926;4.374;2022-09-09T17:01:14;2.15;;;0.60;;
19998;SDS011;10160;50.926;4.374;2022-09-09T17:03:40;4.90;;;1.10;;
19998;SDS011;10160;50.926;4.374;2022-09-09T17:06:12;5.32;;;1.13;;
19998;SDS011;10160;50.926;4.374;2022-09-09T17:08:40;3.83;;;1.13;;
19998;SDS011;10160;50.926;4.374;2022-09-09T17:11:16;5.18;;;0.90;;